sensor_id;sensor_type;location;lat;lon;timestamp;pressure;altitude;pressure_sealevel;temperature;humidity
65897;BME280;52677;50.898;10.854;2023-02-28T00:01:51;99752.13;;;-2.75;100.00
65897;BME280;52677;50.898;10.854;2023-02-28T00:03:51;99747.53;;;-2.75;100.00
65897;BME280;52677;50.898;10.854;2023-02-28T00:05:52;99748.59;;;-2.76;100.00
65897;BME280;52677;50.898;10.854;2023-02-28T00:07:52;99749.16;;;-2.74;100.00
65897;BME280;52677;50.898;10.854;2023-02-28T00:09:53;99741.03;;;-2.74;100.00
65897;BME280;52677;50.898;10.854;2023-02-28T00:11:53;99739.66;;;-2.76;100.00
65897;BME280;52677;50.898;10.854;2023-02-28T00:13:54;99736.94;;;-2.76;100.00
65897;BME280;52677;50.898;10.854;2023-02-28T00:16:21;99738.59;;;-2.75;100.00
65897;BME280;52677;50.898;10.854;2023-02-28T00:18:22;99735.84;;;-2.80;100.00
65897;BME280;52677;50.898;10.854;2023-02-28T00:20:22;99740.47;;;-2.81;100.00
65897;BME280;52677;50.898;10.854;2023-02-28T00:22:23;99741.28;;;-2.80;100.00
65897;BME280;52677;50.898;10.854;2023-02-28T00:24:23;99743.72;;;-2.79;100.00
65897;BME280;52677;50.898;10.854;2023-02-28T00:26:23;99733.38;;;-2.82;100.00
65897;BME280;52677;50.898;10.854;2023-02-28T00:28:24;99739.88;;;-2.83;100.00
65897;BME280;52677;50.898;10.854;2023-02-28T00:30:24;99736.06;;;-2.87;100.00
65897;BME280;52677;50.898;10.854;2023-02-28T00:32:25;99745.00;;;-2.87;100.00
65897;BME280;52677;50.898;10.854;2023-02-28T00:34:25;99739.84;;;-2.88;100.00
65897;BME280;52677;50.898;10.854;2023-02-28T00:36:26;99736.56;;;-2.90;100.00
65897;BME280;52677;50.898;10.854;2023-02-28T00:38:26;99735.75;;;-2.91;100.00
65897;BME280;52677;50.898;10.854;2023-02-28T00:40:26;99735.25;;;-2.88;100.00
65897;BME280;52677;50.898;10.854;2023-02-28T00:42:27;99735.25;;;-2.88;100.00
65897;BME280;52677;50.898;10.854;2023-02-28T00:44:28;99738.78;;;-2.87;100.00
65897;BME280;52677;50.898;10.854;2023-02-28T00:46:28;99738.50;;;-2.86;100.00
65897;BME280;52677;50.898;10.854;2023-02-28T00:48:28;99735.00;;;-2.86;100.00
65897;BME280;52677;50.898;10.854;2023-02-28T00:50:29;99735.25;;;-2.88;100.00
65897;BME280;52677;50.898;10.854;2023-02-28T00:52:30;99735.81;;;-2.86;100.00
65897;BME280;52677;50.898;10.854;2023-02-28T00:54:30;99732.81;;;-2.84;100.00
65897;BME280;52677;50.898;10.854;2023-02-28T00:56:30;99740.97;;;-2.84;100.00
65897;BME280;52677;50.898;10.854;2023-02-28T00:58:31;99736.06;;;-2.87;100.00
65897;BME280;52677;50.898;10.854;2023-02-28T01:00:31;99729.84;;;-2.88;100.00
65897;BME280;52677;50.898;10.854;2023-02-28T01:02:32;99729.03;;;-2.88;100.00
65897;BME280;52677;50.898;10.854;2023-02-28T01:04:32;99732.28;;;-2.86;100.00
65897;BME280;52677;50.898;10.854;2023-02-28T01:06:32;99732.53;;;-2.88;100.00
65897;BME280;52677;50.898;10.854;2023-02-28T01:08:33;99728.22;;;-2.84;100.00
65897;BME280;52677;50.898;10.854;2023-02-28T01:10:33;99732.56;;;-2.83;100.00
65897;BME280;52677;50.898;10.854;2023-02-28T01:12:33;99729.03;;;-2.83;100.00
65897;BME280;52677;50.898;10.854;2023-02-28T01:14:34;99734.47;;;-2.83;100.00
65897;BME280;52677;50.898;10.854;2023-02-28T01:16:35;99730.94;;;-2.84;100.00
65897;BME280;52677;50.898;10.854;2023-02-28T01:18:36;99734.19;;;-2.82;100.00
65897;BME280;52677;50.898;10.854;2023-02-28T01:20:37;99734.47;;;-2.83;100.00
65897;BME280;52677;50.898;10.854;2023-02-28T01:22:38;99730.44;;;-2.80;100.00
65897;BME280;52677;50.898;10.854;2023-02-28T01:24:38;99730.44;;;-2.80;100.00
65897;BME280;52677;50.898;10.854;2023-02-28T01:26:40;99732.88;;;-2.79;100.00
65897;BME280;52677;50.898;10.854;2023-02-28T01:28:40;99732.63;;;-2.77;100.00
65897;BME280;52677;50.898;10.854;2023-02-28T01:30:41;99729.91;;;-2.77;100.00
65897;BME280;52677;50.898;10.854;2023-02-28T01:32:41;99732.88;;;-2.79;100.00
65897;BME280;52677;50.898;10.854;2023-02-28T01:34:41;99734.19;;;-2.82;100.00
65897;BME280;52677;50.898;10.854;2023-02-28T01:36:42;99727.16;;;-2.83;100.00
65897;BME280;52677;50.898;10.854;2023-02-28T01:38:42;99727.97;;;-2.82;100.00
65897;BME280;52677;50.898;10.854;2023-02-28T01:40:43;99718.22;;;-2.83;100.00
65897;BME280;52677;50.898;10.854;2023-02-28T01:42:43;99726.66;;;-2.79;100.00
65897;BME280;52677;50.898;10.854;2023-02-28T01:45:04;99726.66;;;-2.79;100.00
65897;BME280;52677;50.898;10.854;2023-02-28T01:47:06;99717.13;;;-2.82;100.00
65897;BME280;52677;50.898;10.854;2023-02-28T01:49:15;99717.94;;;-2.82;100.00
65897;BME280;52677;50.898;10.854;2023-02-28T01:51:41;99722.53;;;-2.82;100.00
65897;BME280;52677;50.898;10.854;2023-02-28T01:53:49;99722.25;;;-2.86;100.00
65897;BME280;52677;50.898;10.854;2023-02-28T01:55:52;99716.56;;;-2.84;100.00
65897;BME280;52677;50.898;10.854;2023-02-28T01:57:56;99720.09;;;-2.84;100.00
65897;BME280;52677;50.898;10.854;2023-02-28T02:00:00;99711.47;;;-2.80;100.00
65897;BME280;52677;50.898;10.854;2023-02-28T02:02:04;99719.03;;;-2.83;100.00
65897;BME280;52677;50.898;10.854;2023-02-28T02:04:05;99709.53;;;-2.85;100.00
65897;BME280;52677;50.898;10.854;2023-02-28T02:06:05;99710.34;;;-2.85;100.00
65897;BME280;52677;50.898;10.854;2023-02-28T02:08:26;99715.81;;;-2.79;100.00
65897;BME280;52677;50.898;10.854;2023-02-28T02:10:41;99696.84;;;-2.79;100.00
65897;BME280;52677;50.898;10.854;2023-02-28T02:15:10;99696.84;;;-2.79;100.00
65897;BME280;52677;50.898;10.854;2023-02-28T02:17:20;99691.13;;;-2.83;100.00
65897;BME280;52677;50.898;10.854;2023-02-28T02:19:42;99697.13;;;-2.81;100.00
65897;BME280;52677;50.898;10.854;2023-02-28T02:33:06;99692.25;;;-2.79;100.00
65897;BME280;52677;50.898;10.854;2023-02-28T02:35:28;99691.16;;;-2.78;100.00
65897;BME280;52677;50.898;10.854;2023-02-28T02:37:52;99691.44;;;-2.79;100.00
65897;BME280;52677;50.898;10.854;2023-02-28T02:42:14;99687.34;;;-2.82;100.00
65897;BME280;52677;50.898;10.854;2023-02-28T02:44:24;99690.56;;;-2.85;100.00
65897;BME280;52677;50.898;10.854;2023-02-28T02:46:43;99687.59;;;-2.89;100.00
65897;BME280;52677;50.898;10.854;2023-02-28T02:48:45;99699.47;;;-2.90;100.00
65897;BME280;52677;50.898;10.854;2023-02-28T02:50:52;99700.31;;;-2.89;100.00
65897;BME280;52677;50.898;10.854;2023-02-28T02:52:57;99690.78;;;-2.92;100.00
65897;BME280;52677;50.898;10.854;2023-02-28T02:54:59;99696.47;;;-2.93;100.00
65897;BME280;52677;50.898;10.854;2023-02-28T02:57:08;99695.94;;;-2.95;100.00
65897;BME280;52677;50.898;10.854;2023-02-28T02:59:13;99698.09;;;-2.97;100.00
65897;BME280;52677;50.898;10.854;2023-02-28T03:01:23;99690.19;;;-3.04;100.00
65897;BME280;52677;50.898;10.854;2023-02-28T03:03:29;99691.00;;;-3.03;100.00
65897;BME280;52677;50.898;10.854;2023-02-28T03:05:45;99688.53;;;-3.05;100.00
65897;BME280;52677;50.898;10.854;2023-02-28T03:07:46;99693.38;;;-3.07;100.00
65897;BME280;52677;50.898;10.854;2023-02-28T03:09:53;99688.78;;;-3.06;100.00
65897;BME280;52677;50.898;10.854;2023-02-28T03:11:55;99691.25;;;-3.05;100.00
65897;BME280;52677;50.898;10.854;2023-02-28T03:14:10;99696.09;;;-3.07;100.00
65897;BME280;52677;50.898;10.854;2023-02-28T03:16:21;99693.66;;;-3.08;100.00
65897;BME280;52677;50.898;10.854;2023-02-28T03:18:40;99693.38;;;-3.07;100.00
65897;BME280;52677;50.898;10.854;2023-02-28T03:21:34;99696.63;;;-3.10;100.00
65897;BME280;52677;50.898;10.854;2023-02-28T03:23:48;99699.31;;;-3.10;100.00
65897;BME280;52677;50.898;10.854;2023-02-28T03:28:00;99703.63;;;-3.14;100.00
65897;BME280;52677;50.898;10.854;2023-02-28T03:32:21;99695.19;;;-3.18;100.00
65897;BME280;52677;50.898;10.854;2023-02-28T03:34:49;99690.31;;;-3.21;100.00
65897;BME280;52677;50.898;10.854;2023-02-28T03:36:57;99703.59;;;-3.19;100.00
65897;BME280;52677;50.898;10.854;2023-02-28T03:39:03;99689.50;;;-3.21;100.00
65897;BME280;52677;50.898;10.854;2023-02-28T03:43:30;99703.59;;;-3.19;100.00
65897;BME280;52677;50.898;10.854;2023-02-28T03:45:35;99696.53;;;-3.20;100.00
65897;BME280;52677;50.898;10.854;2023-02-28T03:47:57;99698.69;;;-3.22;100.00
65897;BME280;52677;50.898;10.854;2023-02-28T03:49:59;99695.72;;;-3.21;100.00
65897;BME280;52677;50.898;10.854;2023-02-28T03:52:03;99700.00;;;-3.25;100.00
65897;BME280;52677;50.898;10.854;2023-02-28T03:54:15;99701.09;;;-3.26;100.00
65897;BME280;52677;50.898;10.854;2023-02-28T03:56:20;99693.78;;;-3.25;100.00
65897;BME280;52677;50.898;10.854;2023-02-28T03:58:41;99696.50;;;-3.25;100.00
65897;BME280;52677;50.898;10.854;2023-02-28T04:00:47;99695.16;;;-3.23;100.00
65897;BME280;52677;50.898;10.854;2023-02-28T04:02:49;99700.31;;;-3.21;100.00
65897;BME280;52677;50.898;10.854;2023-02-28T04:04:52;99692.44;;;-3.23;100.00
65897;BME280;52677;50.898;10.854;2023-02-28T04:07:01;99704.66;;;-3.20;100.00
65897;BME280;52677;50.898;10.854;2023-02-28T04:09:04;99705.47;;;-3.20;100.00
65897;BME280;52677;50.898;10.854;2023-02-28T04:13:14;99713.63;;;-3.15;100.00
65897;BME280;52677;50.898;10.854;2023-02-28T04:15:15;99702.78;;;-3.15;100.00
65897;BME280;52677;50.898;10.854;2023-02-28T04:17:16;99714.22;;;-3.13;100.00
65897;BME280;52677;50.898;10.854;2023-02-28T04:19:16;99720.94;;;-3.15;100.00
65897;BME280;52677;50.898;10.854;2023-02-28T04:21:17;99708.25;;;-3.09;100.00
65897;BME280;52677;50.898;10.854;2023-02-28T04:23:20;99707.44;;;-3.10;100.00
65897;BME280;52677;50.898;10.854;2023-02-28T04:25:21;99702.84;;;-3.09;100.00
65897;BME280;52677;50.898;10.854;2023-02-28T04:27:21;99711.78;;;-3.09;100.00
65897;BME280;52677;50.898;10.854;2023-02-28T04:29:30;99711.78;;;-3.09;100.00
65897;BME280;52677;50.898;10.854;2023-02-28T04:31:32;99704.47;;;-3.08;100.00
65897;BME280;52677;50.898;10.854;2023-02-28T04:33:33;99704.78;;;-3.05;100.00
65897;BME280;52677;50.898;10.854;2023-02-28T04:35:33;99710.44;;;-3.06;100.00
65897;BME280;52677;50.898;10.854;2023-02-28T04:37:33;99716.94;;;-3.07;100.00
65897;BME280;52677;50.898;10.854;2023-02-28T04:39:36;99713.41;;;-3.08;100.00
65897;BME280;52677;50.898;10.854;2023-02-28T04:41:36;99705.81;;;-3.11;100.00
65897;BME280;52677;50.898;10.854;2023-02-28T04:43:37;99706.38;;;-3.09;100.00
65897;BME280;52677;50.898;10.854;2023-02-28T04:45:37;99723.75;;;-3.05;100.00
65897;BME280;52677;50.898;10.854;2023-02-28T04:47:37;99711.28;;;-3.06;100.00
65897;BME280;52677;50.898;10.854;2023-02-28T04:49:38;99716.72;;;-3.01;100.00
65897;BME280;52677;50.898;10.854;2023-02-28T04:51:39;99714.00;;;-3.01;100.00
65897;BME280;52677;50.898;10.854;2023-02-28T04:53:40;99710.50;;;-3.01;100.00
65897;BME280;52677;50.898;10.854;2023-02-28T04:55:41;99718.63;;;-3.01;100.00
65897;BME280;52677;50.898;10.854;2023-02-28T04:57:41;99716.44;;;-3.04;100.00
65897;BME280;52677;50.898;10.854;2023-02-28T04:59:42;99710.75;;;-3.03;100.00
65897;BME280;52677;50.898;10.854;2023-02-28T05:01:46;99712.38;;;-3.02;100.00
65897;BME280;52677;50.898;10.854;2023-02-28T05:03:47;99721.59;;;-3.03;100.00
65897;BME280;52677;50.898;10.854;2023-02-28T05:05:48;99714.81;;;-3.05;100.00
65897;BME280;52677;50.898;10.854;2023-02-28T05:07:48;99726.44;;;-3.05;100.00
65897;BME280;52677;50.898;10.854;2023-02-28T05:09:49;99716.69;;;-3.06;100.00
65897;BME280;52677;50.898;10.854;2023-02-28T05:11:49;99718.56;;;-3.06;100.00
65897;BME280;52677;50.898;10.854;2023-02-28T05:13:50;99719.91;;;-3.09;100.00
65897;BME280;52677;50.898;10.854;2023-02-28T05:15:50;99730.53;;;-3.02;100.00
65897;BME280;52677;50.898;10.854;2023-02-28T05:17:51;99720.47;;;-3.07;100.00
65897;BME280;52677;50.898;10.854;2023-02-28T05:19:51;99726.69;;;-3.06;100.00
65897;BME280;52677;50.898;10.854;2023-02-28T05:21:55;99725.59;;;-3.11;100.00
65897;BME280;52677;50.898;10.854;2023-02-28T05:23:57;99728.56;;;-3.12;100.00
65897;BME280;52677;50.898;10.854;2023-02-28T05:25:58;99733.16;;;-3.13;100.00
65897;BME280;52677;50.898;10.854;2023-02-28T05:27:58;99731.75;;;-3.15;100.00
65897;BME280;52677;50.898;10.854;2023-02-28T05:29:59;99725.25;;;-3.19;100.00
65897;BME280;52677;50.898;10.854;2023-02-28T05:31:59;99726.59;;;-3.22;100.00
65897;BME280;52677;50.898;10.854;2023-02-28T05:33:59;99738.22;;;-3.21;100.00
65897;BME280;52677;50.898;10.854;2023-02-28T05:36:00;99739.06;;;-3.16;100.00
65897;BME280;52677;50.898;10.854;2023-02-28T05:38:00;99732.84;;;-3.16;100.00
65897;BME280;52677;50.898;10.854;2023-02-28T05:40:01;99740.97;;;-3.16;100.00
65897;BME280;52677;50.898;10.854;2023-02-28T05:42:02;99744.47;;;-3.16;100.00
65897;BME280;52677;50.898;10.854;2023-02-28T05:44:03;99742.56;;;-3.20;100.00
65897;BME280;52677;50.898;10.854;2023-02-28T05:46:07;99745.28;;;-3.15;100.00
65897;BME280;52677;50.898;10.854;2023-02-28T05:48:08;99740.66;;;-3.20;100.00
65897;BME280;52677;50.898;10.854;2023-02-28T05:50:09;99743.88;;;-3.23;100.00
65897;BME280;52677;50.898;10.854;2023-02-28T05:52:10;99745.22;;;-3.25;100.00
65897;BME280;52677;50.898;10.854;2023-02-28T05:54:10;99740.59;;;-3.25;100.00
65897;BME280;52677;50.898;10.854;2023-02-28T05:56:11;99744.13;;;-3.24;100.00
65897;BME280;52677;50.898;10.854;2023-02-28T05:58:11;99740.88;;;-3.26;100.00
65897;BME280;52677;50.898;10.854;2023-02-28T06:00:12;99743.84;;;-3.28;100.00
65897;BME280;52677;50.898;10.854;2023-02-28T06:02:16;99740.00;;;-3.32;100.00
65897;BME280;52677;50.898;10.854;2023-02-28T06:04:18;99743.22;;;-3.35;100.00
65897;BME280;52677;50.898;10.854;2023-02-28T06:06:19;99740.53;;;-3.35;100.00
65897;BME280;52677;50.898;10.854;2023-02-28T06:08:19;99747.81;;;-3.35;100.00
65897;BME280;52677;50.898;10.854;2023-02-28T06:10:19;99741.78;;;-3.43;100.00
65897;BME280;52677;50.898;10.854;2023-02-28T06:12:20;99752.88;;;-3.44;100.00
65897;BME280;52677;50.898;10.854;2023-02-28T06:14:20;99743.88;;;-3.50;100.00
65897;BME280;52677;50.898;10.854;2023-02-28T06:16:21;99746.84;;;-3.51;100.00
65897;BME280;52677;50.898;10.854;2023-02-28T06:18:22;99755.50;;;-3.54;100.00
65897;BME280;52677;50.898;10.854;2023-02-28T06:20:23;99754.16;;;-3.52;100.00
65897;BME280;52677;50.898;10.854;2023-02-28T06:22:24;99752.19;;;-3.56;100.00
65897;BME280;52677;50.898;10.854;2023-02-28T06:24:25;99766.00;;;-3.58;100.00
65897;BME280;52677;50.898;10.854;2023-02-28T06:26:28;99760.28;;;-3.61;100.00
65897;BME280;52677;50.898;10.854;2023-02-28T06:28:28;99758.91;;;-3.64;100.00
65897;BME280;52677;50.898;10.854;2023-02-28T06:30:28;99752.63;;;-3.70;100.00
65897;BME280;52677;50.898;10.854;2023-02-28T06:32:30;99766.19;;;-3.64;100.00
65897;BME280;52677;50.898;10.854;2023-02-28T06:34:30;99765.88;;;-3.68;100.00
65897;BME280;52677;50.898;10.854;2023-02-28T06:36:30;99767.22;;;-3.71;100.00
65897;BME280;52677;50.898;10.854;2023-02-28T06:38:32;99778.78;;;-3.75;100.00
65897;BME280;52677;50.898;10.854;2023-02-28T06:40:32;99776.59;;;-3.78;100.00
65897;BME280;52677;50.898;10.854;2023-02-28T06:42:35;99784.16;;;-3.80;100.00
65897;BME280;52677;50.898;10.854;2023-02-28T06:44:35;99785.19;;;-3.81;100.00
65897;BME280;52677;50.898;10.854;2023-02-28T06:46:35;99786.00;;;-3.81;100.00
65897;BME280;52677;50.898;10.854;2023-02-28T06:48:36;99789.59;;;-3.75;100.00
65897;BME280;52677;50.898;10.854;2023-02-28T06:50:36;99790.66;;;-3.76;100.00
65897;BME280;52677;50.898;10.854;2023-02-28T06:52:37;99793.38;;;-3.76;100.00
65897;BME280;52677;50.898;10.854;2023-02-28T06:54:38;99785.56;;;-3.73;100.00
65897;BME280;52677;50.898;10.854;2023-02-28T06:56:38;99795.06;;;-3.70;100.00
65897;BME280;52677;50.898;10.854;2023-02-28T06:58:39;99799.72;;;-3.65;100.00
65897;BME280;52677;50.898;10.854;2023-02-28T07:00:41;99799.22;;;-3.62;100.00
65897;BME280;52677;50.898;10.854;2023-02-28T07:02:42;99798.44;;;-3.58;100.00
65897;BME280;52677;50.898;10.854;2023-02-28T07:04:42;99801.97;;;-3.57;100.00
65897;BME280;52677;50.898;10.854;2023-02-28T07:06:44;99808.78;;;-3.55;100.00
65897;BME280;52677;50.898;10.854;2023-02-28T07:08:45;99807.72;;;-3.54;100.00
65897;BME280;52677;50.898;10.854;2023-02-28T07:10:45;99803.94;;;-3.53;100.00
65897;BME280;52677;50.898;10.854;2023-02-28T07:12:45;99808.34;;;-3.47;100.00
65897;BME280;52677;50.898;10.854;2023-02-28T07:14:46;99814.59;;;-3.41;100.00
65897;BME280;52677;50.898;10.854;2023-02-28T07:16:46;99813.84;;;-3.36;100.00
65897;BME280;52677;50.898;10.854;2023-02-28T07:18:47;99811.97;;;-3.36;100.00
65897;BME280;52677;50.898;10.854;2023-02-28T07:20:47;99803.31;;;-3.33;100.00
65897;BME280;52677;50.898;10.854;2023-02-28T07:22:48;99809.56;;;-3.32;100.00
65897;BME280;52677;50.898;10.854;2023-02-28T07:24:55;99814.22;;;-3.28;100.00
65897;BME280;52677;50.898;10.854;2023-02-28T07:26:55;99815.91;;;-3.22;100.00
65897;BME280;52677;50.898;10.854;2023-02-28T07:28:56;99821.63;;;-3.18;100.00
65897;BME280;52677;50.898;10.854;2023-02-28T07:30:56;99813.03;;;-3.10;100.00
65897;BME280;52677;50.898;10.854;2023-02-28T07:32:57;99804.66;;;-3.08;100.00
65897;BME280;52677;50.898;10.854;2023-02-28T07:34:57;99805.78;;;-3.04;100.00
65897;BME280;52677;50.898;10.854;2023-02-28T07:36:57;99807.41;;;-3.03;100.00
65897;BME280;52677;50.898;10.854;2023-02-28T07:38:58;99809.13;;;-2.97;100.00
65897;BME280;52677;50.898;10.854;2023-02-28T07:40:59;99801.28;;;-2.94;100.00
65897;BME280;52677;50.898;10.854;2023-02-28T07:43:03;99802.16;;;-2.88;100.00
65897;BME280;52677;50.898;10.854;2023-02-28T07:45:04;99799.47;;;-2.83;100.00
65897;BME280;52677;50.898;10.854;2023-02-28T07:47:04;99802.22;;;-2.78;100.00
65897;BME280;52677;50.898;10.854;2023-02-28T07:49:05;99805.22;;;-2.74;100.00
65897;BME280;52677;50.898;10.854;2023-02-28T07:51:06;99805.22;;;-2.74;100.00
65897;BME280;52677;50.898;10.854;2023-02-28T07:53:06;99808.53;;;-2.67;100.00
65897;BME280;52677;50.898;10.854;2023-02-28T07:55:08;99804.81;;;-2.61;100.00
65897;BME280;52677;50.898;10.854;2023-02-28T07:57:09;99810.50;;;-2.58;100.00
65897;BME280;52677;50.898;10.854;2023-02-28T07:59:09;99799.16;;;-2.55;100.00
65897;BME280;52677;50.898;10.854;2023-02-28T08:01:11;99800.56;;;-2.47;100.00
65897;BME280;52677;50.898;10.854;2023-02-28T08:03:12;99809.84;;;-2.38;100.00
65897;BME280;52677;50.898;10.854;2023-02-28T08:05:13;99808.25;;;-2.34;100.00
65897;BME280;52677;50.898;10.854;2023-02-28T08:07:13;99805.84;;;-2.30;100.00
65897;BME280;52677;50.898;10.854;2023-02-28T08:09:14;99810.47;;;-2.26;100.00
65897;BME280;52677;50.898;10.854;2023-02-28T08:11:15;99799.41;;;-2.19;100.00
65897;BME280;52677;50.898;10.854;2023-02-28T08:13:16;99813.28;;;-2.10;100.00
65897;BME280;52677;50.898;10.854;2023-02-28T08:15:16;99802.97;;;-2.08;100.00
65897;BME280;52677;50.898;10.854;2023-02-28T08:17:17;99807.88;;;-2.05;100.00
65897;BME280;52677;50.898;10.854;2023-02-28T08:19:17;99796.22;;;-2.06;100.00
65897;BME280;52677;50.898;10.854;2023-02-28T08:21:19;99790.28;;;-2.03;100.00
65897;BME280;52677;50.898;10.854;2023-02-28T08:23:19;99800.06;;;-1.96;100.00
65897;BME280;52677;50.898;10.854;2023-02-28T08:25:20;99804.13;;;-1.94;100.00
65897;BME280;52677;50.898;10.854;2023-02-28T08:27:21;99813.41;;;-1.90;100.00
65897;BME280;52677;50.898;10.854;2023-02-28T08:29:21;99800.38;;;-1.83;100.00
65897;BME280;52677;50.898;10.854;2023-02-28T08:31:22;99792.56;;;-1.79;98.44
65897;BME280;52677;50.898;10.854;2023-02-28T08:33:24;99809.41;;;-1.72;98.82
65897;BME280;52677;50.898;10.854;2023-02-28T08:35:24;99812.41;;;-1.68;98.65
65897;BME280;52677;50.898;10.854;2023-02-28T08:37:25;99802.66;;;-1.64;98.83
65897;BME280;52677;50.898;10.854;2023-02-28T08:39:25;99805.91;;;-1.57;97.73
65897;BME280;52677;50.898;10.854;2023-02-28T08:41:26;99804.28;;;-1.58;98.17
65897;BME280;52677;50.898;10.854;2023-02-28T08:43:27;99808.09;;;-1.59;97.50
65897;BME280;52677;50.898;10.854;2023-02-28T08:45:28;99808.63;;;-1.57;97.60
65897;BME280;52677;50.898;10.854;2023-02-28T08:47:28;99804.88;;;-1.56;96.30
65897;BME280;52677;50.898;10.854;2023-02-28T08:49:28;99805.16;;;-1.48;96.14
65897;BME280;52677;50.898;10.854;2023-02-28T08:51:29;99817.91;;;-1.43;96.83
65897;BME280;52677;50.898;10.854;2023-02-28T08:53:30;99815.22;;;-1.38;95.41
65897;BME280;52677;50.898;10.854;2023-02-28T08:55:30;99815.22;;;-1.38;94.29
65897;BME280;52677;50.898;10.854;2023-02-28T08:57:31;99814.41;;;-1.38;93.73
65897;BME280;52677;50.898;10.854;2023-02-28T08:59:32;99823.38;;;-1.38;93.93
65897;BME280;52677;50.898;10.854;2023-02-28T09:01:32;99812.78;;;-1.34;92.74
65897;BME280;52677;50.898;10.854;2023-02-28T09:03:33;99814.72;;;-1.30;94.40
65897;BME280;52677;50.898;10.854;2023-02-28T09:05:33;99815.53;;;-1.24;92.79
65897;BME280;52677;50.898;10.854;2023-02-28T09:07:33;99814.72;;;-1.20;92.38
65897;BME280;52677;50.898;10.854;2023-02-28T09:09:34;99820.72;;;-1.13;92.11
65897;BME280;52677;50.898;10.854;2023-02-28T09:11:34;99819.91;;;-1.08;90.78
65897;BME280;52677;50.898;10.854;2023-02-28T09:13:35;99819.38;;;-1.10;89.05
65897;BME280;52677;50.898;10.854;2023-02-28T09:15:37;99818.56;;;-1.10;88.46
65897;BME280;52677;50.898;10.854;2023-02-28T09:17:37;99816.91;;;-1.11;87.69
65897;BME280;52677;50.898;10.854;2023-02-28T09:19:38;99815.84;;;-1.05;89.31
65897;BME280;52677;50.898;10.854;2023-02-28T09:21:38;99809.59;;;-1.01;87.34
65897;BME280;52677;50.898;10.854;2023-02-28T09:23:39;99814.78;;;-0.99;87.77
65897;BME280;52677;50.898;10.854;2023-02-28T09:25:47;99813.72;;;-0.88;85.89
65897;BME280;52677;50.898;10.854;2023-02-28T09:27:48;99812.34;;;-0.91;86.29
65897;BME280;52677;50.898;10.854;2023-02-28T09:29:48;99811.00;;;-0.88;87.81
65897;BME280;52677;50.898;10.854;2023-02-28T09:31:48;99811.00;;;-0.78;89.25
65897;BME280;52677;50.898;10.854;2023-02-28T09:33:51;99812.88;;;-0.68;85.82
65897;BME280;52677;50.898;10.854;2023-02-28T09:35:58;99812.06;;;-0.69;86.41
65897;BME280;52677;50.898;10.854;2023-02-28T09:37:59;99814.00;;;-0.64;85.75
65897;BME280;52677;50.898;10.854;2023-02-28T09:40:03;99810.75;;;-0.66;84.59
65897;BME280;52677;50.898;10.854;2023-02-28T09:42:04;99809.38;;;-0.64;84.19
65897;BME280;52677;50.898;10.854;2023-02-28T09:44:05;99805.00;;;-0.60;84.97
65897;BME280;52677;50.898;10.854;2023-02-28T09:48:35;99809.91;;;-0.41;85.70
65897;BME280;52677;50.898;10.854;2023-02-28T09:50:48;99803.09;;;-0.44;83.47
65897;BME280;52677;50.898;10.854;2023-02-28T09:52:50;99812.88;;;-0.43;82.64
65897;BME280;52677;50.898;10.854;2023-02-28T09:54:51;99812.09;;;-0.33;81.98
65897;BME280;52677;50.898;10.854;2023-02-28T09:59:12;99818.31;;;-0.22;81.04
65897;BME280;52677;50.898;10.854;2023-02-28T10:01:28;99813.69;;;-0.27;81.03
65897;BME280;52677;50.898;10.854;2023-02-28T10:03:43;99821.84;;;-0.42;79.45
65897;BME280;52677;50.898;10.854;2023-02-28T10:05:52;99814.50;;;-0.42;81.34
65897;BME280;52677;50.898;10.854;2023-02-28T10:08:14;99816.41;;;-0.27;82.05
65897;BME280;52677;50.898;10.854;2023-02-28T10:10:21;99816.09;;;-0.10;81.68
65897;BME280;52677;50.898;10.854;2023-02-28T10:12:24;99819.34;;;0.02;80.61
65897;BME280;52677;50.898;10.854;2023-02-28T10:14:28;99817.13;;;0.14;80.85
65897;BME280;52677;50.898;10.854;2023-02-28T10:16:35;99804.84;;;0.27;81.26
65897;BME280;52677;50.898;10.854;2023-02-28T10:18:48;99813.56;;;0.24;77.51
65897;BME280;52677;50.898;10.854;2023-02-28T10:20:50;99805.13;;;0.25;78.92
65897;BME280;52677;50.898;10.854;2023-02-28T10:24:54;99806.09;;;0.55;78.44
65897;BME280;52677;50.898;10.854;2023-02-28T10:27:20;99813.22;;;0.41;77.88
65897;BME280;52677;50.898;10.854;2023-02-28T10:29:21;99809.25;;;0.18;76.98
65897;BME280;52677;50.898;10.854;2023-02-28T10:31:21;99818.00;;;-0.06;78.48
65897;BME280;52677;50.898;10.854;2023-02-28T10:33:29;99813.16;;;-0.29;78.79
65897;BME280;52677;50.898;10.854;2023-02-28T10:35:30;99822.94;;;-0.38;78.54
65897;BME280;52677;50.898;10.854;2023-02-28T10:37:30;99816.69;;;-0.44;77.48
65897;BME280;52677;50.898;10.854;2023-02-28T10:39:45;99821.84;;;-0.37;79.38
65897;BME280;52677;50.898;10.854;2023-02-28T10:41:46;99811.00;;;-0.32;80.12
65897;BME280;52677;50.898;10.854;2023-02-28T10:43:47;99815.88;;;-0.24;80.38
65897;BME280;52677;50.898;10.854;2023-02-28T10:50:45;99811.97;;;0.08;81.28
65897;BME280;52677;50.898;10.854;2023-02-28T10:52:50;99796.75;;;0.07;80.53
65897;BME280;52677;50.898;10.854;2023-02-28T10:55:15;99801.66;;;0.10;81.57
65897;BME280;52677;50.898;10.854;2023-02-28T10:57:20;99808.97;;;0.19;81.62
65897;BME280;52677;50.898;10.854;2023-02-28T10:59:28;99797.78;;;0.21;80.00
65897;BME280;52677;50.898;10.854;2023-02-28T11:01:46;99806.81;;;0.06;79.95
65897;BME280;52677;50.898;10.854;2023-02-28T11:03:53;99789.91;;;0.14;81.33
65897;BME280;52677;50.898;10.854;2023-02-28T11:05:53;99794.81;;;0.17;80.56
65897;BME280;52677;50.898;10.854;2023-02-28T11:07:56;99790.19;;;0.18;80.58
65897;BME280;52677;50.898;10.854;2023-02-28T11:09:57;99796.47;;;0.08;79.86
65897;BME280;52677;50.898;10.854;2023-02-28T11:11:58;99807.38;;;-0.02;79.40
65897;BME280;52677;50.898;10.854;2023-02-28T11:14:19;99798.44;;;-0.13;79.08
65897;BME280;52677;50.898;10.854;2023-02-28T11:16:22;99800.91;;;-0.21;79.37